Salem Airport
VOSM : now visible

Airfield :











YOU CAN JOIN US ON...

 
LOGIN :

Register | Disclaimer

   EN    FR    IT 

 









Legend :    VFR   Marginal VFR   IFR   Intensive IFR   Very Intensive IFR
Visi :
Ceiling :
>= 8 km
>= 3000ft
5 to 8 km
1000 to 3000 ft
1500m to 5 km
500 to 1000 ft
800 to 1500m
200 to 500 ft
< 800m
< 200 ft
Symbols :   Thunderstorms  Fog  Heavy snow  Heavy precipitations  Wind > 20 kt






- Airport Elevation : 1008 ft
- IATA code : SXV


VOSM - Salem

CURRENT METAR :
  • 070300Z 00000KT 7000 SCT020 BKN100 29/22 Q1010 NOSIG

EXPIRED METARs :
  • 070230Z 00000KT 6000 SCT020 BKN100 29/23 Q1009 NOSIG
  • 070200Z 00000KT 6000 SCT020 BKN100 29/29 Q1009 NOSIG
  • 070130Z 00000KT 6000 SCT020 BKN100 28/22 Q1009 NOSIG
  • 070100Z 00000KT 6000 SCT020 BKN100 28/23 Q1009 NOSIG

Expired Forecast.
VOMF FIR / Asia



MET'MAP, your aeronautical weather chart ! - Copyright ORBIFLY December 2007 - Disclaimer

ORBIFLY MET'MAP TEAM :

Programming & Development : Alexandra Zaïnal
Concept & original design : Baudouin d'Aumeries
Assistance for programming : Marc-Olivier Méhu
Technical & hardware support : Manuel Goepfert

Contact : metmap@orbifly.com




SOURCES & CREDITS :

   NOAA       Earth
Advisory